createdAt,value
2022-09-12T00:01:03.912Z,71.01
2022-09-12T00:03:41.995Z,69.03
2022-09-12T00:06:31.723Z,68.10
2022-09-12T00:09:23.113Z,67.21
2022-09-12T00:12:05.044Z,66.97
2022-09-12T00:14:54.235Z,66.51
2022-09-12T00:17:40.968Z,65.81
2022-09-12T00:20:21.607Z,64.28
2022-09-12T00:23:07.030Z,64.23
2022-09-12T00:25:56.490Z,64.12
2022-09-12T00:28:34.866Z,62.59
2022-09-12T00:31:22.315Z,62.94
2022-09-12T00:33:58.868Z,63.74
2022-09-12T00:36:55.082Z,63.19
2022-09-12T00:39:31.893Z,62.05
2022-09-12T00:42:18.842Z,62.18
2022-09-12T00:45:12.378Z,61.39
2022-09-12T00:47:57.815Z,60.99
2022-09-12T00:50:39.417Z,61.14
2022-09-12T00:53:20.751Z,59.09
2022-09-12T00:56:12.948Z,58.74
2022-09-12T00:58:57.361Z,59.24
2022-09-12T01:01:52.110Z,59.54
2022-09-12T01:04:39.639Z,59.71
2022-09-12T01:07:23.424Z,59.11
2022-09-12T01:10:04.960Z,59.57
2022-09-12T01:12:51.639Z,58.75
2022-09-12T01:15:28.189Z,58.69
2022-09-12T01:18:32.166Z,59.22
2022-09-12T01:21:20.214Z,58.07
2022-09-12T01:24:32.000Z,57.62
2022-09-12T01:27:49.331Z,57.44
2022-09-12T01:31:08.809Z,56.74
2022-09-12T01:34:11.816Z,57.15
2022-09-12T01:37:05.074Z,57.01
2022-09-12T01:39:49.712Z,56.88
2022-09-12T01:42:34.353Z,59.10
2022-09-12T01:45:31.539Z,58.27
2022-09-12T01:48:35.132Z,57.27
2022-09-12T01:51:19.581Z,57.02
2022-09-12T01:54:08.840Z,57.61
2022-09-12T01:56:53.537Z,58.14
2022-09-12T01:59:49.700Z,59.23
2022-09-12T02:02:45.184Z,59.48
2022-09-12T02:05:30.366Z,59.50
2022-09-12T02:08:16.448Z,58.71
2022-09-12T02:14:22.027Z,57.88
2022-09-12T02:17:12.454Z,58.54
2022-09-12T02:19:56.169Z,58.63
2022-09-12T02:22:49.727Z,57.81
2022-09-12T02:25:28.400Z,59.03
2022-09-12T02:28:14.461Z,59.54
2022-09-12T02:31:10.878Z,58.46
2022-09-12T02:34:05.024Z,58.91
2022-09-12T02:37:01.293Z,59.86
2022-09-12T02:39:45.497Z,59.05
2022-09-12T02:42:31.785Z,58.29
2022-09-12T02:45:13.502Z,57.48
2022-09-12T02:48:04.599Z,58.88
2022-09-12T02:50:50.381Z,58.57
2022-09-12T02:53:30.339Z,59.03
2022-09-12T02:56:23.151Z,58.50
2022-09-12T02:59:06.880Z,58.48
2022-09-12T03:02:20.866Z,58.68
2022-09-12T03:05:18.610Z,58.25
2022-09-12T03:08:37.262Z,58.07
2022-09-12T03:11:46.467Z,58.12
2022-09-12T03:14:43.877Z,57.33
2022-09-12T03:17:40.135Z,58.55
2022-09-12T03:23:19.767Z,57.00
2022-09-12T03:25:57.527Z,56.41
2022-09-12T03:28:42.015Z,56.08
2022-09-12T03:31:49.811Z,55.06
2022-09-12T03:37:33.351Z,54.68
2022-09-12T03:40:13.796Z,54.77
2022-09-12T03:42:59.027Z,54.77
2022-09-12T03:45:44.645Z,54.49
2022-09-12T03:48:31.343Z,55.00
2022-09-12T03:51:09.945Z,55.36
2022-09-12T03:57:00.415Z,55.50
2022-09-12T04:00:08.145Z,55.58
2022-09-12T04:03:08.103Z,56.04
2022-09-12T04:05:51.892Z,56.47
2022-09-12T04:08:32.098Z,56.27
2022-09-12T04:11:33.831Z,57.20
2022-09-12T04:14:25.910Z,57.52
2022-09-12T04:17:13.955Z,57.91
2022-09-12T04:20:09.881Z,58.56
2022-09-12T04:22:52.035Z,58.18
2022-09-12T04:25:36.692Z,58.26
2022-09-12T04:28:12.215Z,58.68
2022-09-12T04:30:49.422Z,60.23
2022-09-12T04:33:31.533Z,61.51
2022-09-12T04:36:11.177Z,61.89
2022-09-12T04:38:51.799Z,62.35
2022-09-12T04:41:30.430Z,60.89
2022-09-12T04:46:54.181Z,62.26
2022-09-12T04:49:26.266Z,62.59
2022-09-12T04:52:07.997Z,62.00
2022-09-12T04:54:49.954Z,62.33
2022-09-12T04:57:34.687Z,63.19
2022-09-12T05:00:15.417Z,63.49
2022-09-12T05:02:52.514Z,63.69
2022-09-12T05:05:32.505Z,63.37
2022-09-12T05:08:31.961Z,63.36
2022-09-12T05:14:09.387Z,62.49
2022-09-12T05:16:51.821Z,63.09
2022-09-12T05:19:39.235Z,63.18
2022-09-12T05:22:26.688Z,63.07
2022-09-12T05:25:14.061Z,63.26
2022-09-12T05:28:14.335Z,63.74
2022-09-12T05:31:18.370Z,64.96
2022-09-12T05:34:01.652Z,64.99
2022-09-12T05:36:41.494Z,65.33
2022-09-12T05:39:29.041Z,66.39
2022-09-12T05:42:39.618Z,67.62
2022-09-12T05:45:18.527Z,68.10
2022-09-12T05:47:57.308Z,68.72
2022-09-12T05:50:41.266Z,68.70
2022-09-12T05:53:23.061Z,69.10
2022-09-12T05:56:31.815Z,69.78
2022-09-12T05:59:34.245Z,70.12
2022-09-12T06:05:03.515Z,71.06
2022-09-12T06:07:45.280Z,71.17
2022-09-12T06:10:25.476Z,71.72
2022-09-12T06:13:22.189Z,71.79
2022-09-12T06:16:26.012Z,72.52
2022-09-12T06:22:17.403Z,71.89
2022-09-12T06:25:04.045Z,72.01
2022-09-12T06:27:49.851Z,72.06
2022-09-12T06:30:30.062Z,72.59
2022-09-12T06:33:15.020Z,73.08
2022-09-12T06:36:01.012Z,73.16
2022-09-12T06:38:40.007Z,73.13
2022-09-12T06:41:20.254Z,73.53
2022-09-12T06:44:12.450Z,73.83
2022-09-12T06:46:48.150Z,74.14
2022-09-12T06:49:59.241Z,74.95
2022-09-12T06:52:42.269Z,75.55
2022-09-12T06:55:29.742Z,75.63
2022-09-12T06:58:26.005Z,75.82
2022-09-12T07:01:17.140Z,76.19
2022-09-12T07:04:04.295Z,76.53
2022-09-12T07:06:49.883Z,76.80
2022-09-12T07:09:27.395Z,77.18
2022-09-12T07:12:06.274Z,77.24
2022-09-12T07:15:00.765Z,77.33
2022-09-12T07:17:44.271Z,77.59
2022-09-12T07:20:35.213Z,77.96
2022-09-12T07:23:19.999Z,78.54
2022-09-12T07:26:22.220Z,78.76
2022-09-12T07:29:32.438Z,79.46
2022-09-12T07:32:07.824Z,79.96
2022-09-12T07:34:42.765Z,80.40
2022-09-12T07:37:26.822Z,80.94
2022-09-12T07:40:22.970Z,81.18
2022-09-12T07:43:12.463Z,81.72
2022-09-12T07:45:54.346Z,81.83
2022-09-12T07:48:43.851Z,82.33
2022-09-12T07:51:20.155Z,82.46
2022-09-12T07:54:05.590Z,82.71
2022-09-12T07:56:45.858Z,82.95
2022-09-12T07:59:51.439Z,83.18
2022-09-12T08:02:42.963Z,82.88
2022-09-12T08:05:22.812Z,83.24
2022-09-12T08:08:11.857Z,83.46
2022-09-12T08:11:01.307Z,83.64
2022-09-12T08:13:40.183Z,83.98
2022-09-12T08:16:25.941Z,84.43
2022-09-12T08:19:16.150Z,84.50
2022-09-12T08:21:56.285Z,84.60
2022-09-12T08:24:36.433Z,84.54
2022-09-12T08:27:17.839Z,84.91
2022-09-12T08:30:10.824Z,85.13
2022-09-12T08:32:59.788Z,85.33
2022-09-12T08:35:42.367Z,85.49
2022-09-12T08:38:26.613Z,85.62
2022-09-12T08:41:33.011Z,86.11
2022-09-12T08:44:51.767Z,86.37
2022-09-12T08:47:38.353Z,86.68
2022-09-12T08:50:31.788Z,87.26
2022-09-12T08:53:12.135Z,87.90
2022-09-12T08:59:02.407Z,88.75
2022-09-12T09:02:07.062Z,89.24
2022-09-12T09:05:20.704Z,89.75
2022-09-12T09:08:22.709Z,90.14
2022-09-12T09:11:11.153Z,89.92
2022-09-12T09:14:20.219Z,90.42
2022-09-12T09:17:05.611Z,90.55
2022-09-12T09:19:54.885Z,90.76
2022-09-12T09:22:43.567Z,90.64
2022-09-12T09:25:26.849Z,90.27
2022-09-12T09:28:15.828Z,90.87
2022-09-12T09:31:09.292Z,90.99
2022-09-12T09:33:57.519Z,91.20
2022-09-12T09:36:54.544Z,91.62
2022-09-12T09:40:04.127Z,91.82
2022-09-12T09:43:00.410Z,92.19
2022-09-12T09:48:47.891Z,92.41
2022-09-12T09:51:35.429Z,92.80
2022-09-12T09:54:34.076Z,93.30
2022-09-12T09:57:51.705Z,93.08
2022-09-12T10:00:42.138Z,93.14
2022-09-12T10:03:39.863Z,93.40
2022-09-12T10:06:44.208Z,93.76
2022-09-12T10:09:52.089Z,93.82
2022-09-12T10:15:48.369Z,94.19
2022-09-12T10:18:41.276Z,94.62
2022-09-12T10:21:36.048Z,94.69
2022-09-12T10:24:28.928Z,94.86
2022-09-12T10:27:24.700Z,95.34
2022-09-12T10:30:16.497Z,95.34
2022-09-12T10:33:05.549Z,95.57
2022-09-12T10:35:58.149Z,95.73
2022-09-12T10:38:44.316Z,95.58
2022-09-12T10:41:24.706Z,95.95
2022-09-12T10:44:28.121Z,95.68
2022-09-12T10:47:51.790Z,95.72
2022-09-12T10:50:39.845Z,95.78
2022-09-12T10:53:45.081Z,95.78
2022-09-12T10:56:44.405Z,96.12
2022-09-12T10:59:34.935Z,96.38
2022-09-12T11:02:44.475Z,96.87
2022-09-12T11:05:28.784Z,97.09
2022-09-12T11:08:22.619Z,97.11
2022-09-12T11:11:08.648Z,97.26
2022-09-12T11:14:06.161Z,97.61
2022-09-12T11:17:12.794Z,97.19
2022-09-12T11:20:24.794Z,96.91
2022-09-12T11:23:40.244Z,96.98
2022-09-12T11:26:35.202Z,97.00
2022-09-12T11:29:35.691Z,97.14
2022-09-12T11:35:45.379Z,97.13
2022-09-12T11:38:56.018Z,97.18
2022-09-12T11:42:00.595Z,97.10
2022-09-12T11:44:43.403Z,97.13
2022-09-12T11:47:30.814Z,97.10
2022-09-12T11:50:19.460Z,97.09
2022-09-12T11:53:01.604Z,97.15
2022-09-12T11:56:06.401Z,97.36
2022-09-12T11:58:51.222Z,97.32
2022-09-12T12:01:48.693Z,97.54
2022-09-12T12:04:34.680Z,97.50
2022-09-12T12:07:23.672Z,97.39
2022-09-12T12:10:16.072Z,97.50
2022-09-12T12:13:03.625Z,97.46
2022-09-12T12:15:48.478Z,97.58
2022-09-12T12:18:33.137Z,97.74
2022-09-12T12:21:35.215Z,97.98
2022-09-12T12:24:22.975Z,98.01
2022-09-12T12:27:17.212Z,98.38
2022-09-12T12:30:23.947Z,98.35
2022-09-12T12:33:06.213Z,98.33
2022-09-12T12:36:19.761Z,98.47
2022-09-12T12:39:04.365Z,98.52
2022-09-12T12:44:57.740Z,99.04
2022-09-12T12:50:34.656Z,99.52
2022-09-12T12:53:14.538Z,99.55
2022-09-12T12:56:34.478Z,99.96
2022-09-12T13:02:14.906Z,100.00
2022-09-12T13:05:00.761Z,100.00
2022-09-12T13:07:40.327Z,100.00
2022-09-12T13:10:50.135Z,100.00
2022-09-12T13:13:36.543Z,100.00
2022-09-12T13:16:30.405Z,100.00
2022-09-12T13:19:26.022Z,100.00
2022-09-12T13:22:13.671Z,100.00
2022-09-12T13:24:57.877Z,100.00
2022-09-12T13:27:41.324Z,100.00
2022-09-12T13:30:26.897Z,100.00
2022-09-12T13:33:05.809Z,100.00
2022-09-12T13:36:12.745Z,100.00
2022-09-12T13:39:08.462Z,100.00
2022-09-12T13:42:18.812Z,100.00
2022-09-12T13:45:12.259Z,100.00
2022-09-12T13:48:14.244Z,100.00
2022-09-12T13:51:06.898Z,100.00
2022-09-12T13:53:57.226Z,100.00
2022-09-12T13:56:34.150Z,100.00
2022-09-12T13:59:30.524Z,100.00
2022-09-12T14:02:12.600Z,100.00
2022-09-12T14:05:27.294Z,100.00
2022-09-12T14:08:14.491Z,100.00
2022-09-12T14:10:53.037Z,100.00
2022-09-12T14:13:38.250Z,100.00
2022-09-12T14:16:41.971Z,100.00
2022-09-12T14:19:28.187Z,100.00
2022-09-12T14:22:18.374Z,100.00
2022-09-12T14:24:55.440Z,100.00
2022-09-12T14:27:37.463Z,100.00
2022-09-12T14:30:38.377Z,100.00
2022-09-12T14:33:23.722Z,100.00
2022-09-12T14:36:23.717Z,100.00
2022-09-12T14:39:09.622Z,100.00
2022-09-12T14:42:08.962Z,100.00
2022-09-12T14:44:53.060Z,100.00
2022-09-12T14:47:47.235Z,100.00
2022-09-12T14:53:51.712Z,100.00
2022-09-12T14:57:16.108Z,100.00
2022-09-12T15:00:19.680Z,100.00
2022-09-12T15:03:34.398Z,100.00
2022-09-12T15:06:15.080Z,100.00
2022-09-12T15:09:00.433Z,100.00
2022-09-12T15:11:55.391Z,100.00
2022-09-12T15:14:55.294Z,100.00
2022-09-12T15:18:07.055Z,100.00
2022-09-12T15:20:56.201Z,100.00
2022-09-12T15:24:00.650Z,100.00
2022-09-12T15:26:51.985Z,100.00
2022-09-12T15:29:31.050Z,100.00
2022-09-12T15:32:12.776Z,100.00
2022-09-12T15:35:05.378Z,100.00
2022-09-12T15:37:57.828Z,100.00
2022-09-12T15:40:40.827Z,100.00
2022-09-12T15:43:24.015Z,100.00
2022-09-12T15:46:08.700Z,100.00
2022-09-12T15:48:52.521Z,100.00
2022-09-12T15:51:39.987Z,100.00
2022-09-12T15:54:29.148Z,100.00
2022-09-12T15:57:09.004Z,100.00
2022-09-12T15:59:45.085Z,100.00
2022-09-12T16:02:24.322Z,100.00
2022-09-12T16:05:27.816Z,100.00
2022-09-12T16:08:20.469Z,100.00
2022-09-12T16:11:00.124Z,100.00
2022-09-12T16:13:51.337Z,100.00
2022-09-12T16:16:46.681Z,100.00
2022-09-12T16:19:25.012Z,100.00
2022-09-12T16:22:18.824Z,100.00
2022-09-12T16:25:24.552Z,100.00
2022-09-12T16:28:02.439Z,100.00
2022-09-12T16:30:44.705Z,100.00
2022-09-12T16:33:26.861Z,100.00
2022-09-12T16:36:13.096Z,100.00
2022-09-12T16:38:52.078Z,100.00
2022-09-12T16:41:38.807Z,100.00
2022-09-12T16:47:11.392Z,100.00
2022-09-12T16:49:46.840Z,100.00
2022-09-12T16:52:30.664Z,100.00
2022-09-12T16:55:36.085Z,100.00
2022-09-12T16:58:15.174Z,100.00
2022-09-12T17:00:53.287Z,100.00
2022-09-12T17:03:40.340Z,100.00
2022-09-12T17:06:19.241Z,100.00
2022-09-12T17:09:02.952Z,100.00
2022-09-12T17:11:50.492Z,100.00
2022-09-12T17:14:29.398Z,100.00
2022-09-12T17:20:10.785Z,100.00
2022-09-12T17:22:48.514Z,100.00
2022-09-12T17:25:46.973Z,100.00
2022-09-12T17:29:21.526Z,100.00
2022-09-12T17:32:06.770Z,100.00
2022-09-12T17:34:53.986Z,100.00
2022-09-12T17:37:39.311Z,100.00
2022-09-12T17:40:19.355Z,100.00
2022-09-12T17:43:12.208Z,100.00
2022-09-12T17:45:52.077Z,100.00
2022-09-12T17:48:34.975Z,100.00
2022-09-12T17:51:23.100Z,100.00
2022-09-12T17:57:15.350Z,100.00
2022-09-12T18:00:09.524Z,100.00
2022-09-12T18:02:52.340Z,100.00
2022-09-12T18:05:39.473Z,100.00
2022-09-12T18:08:15.948Z,100.00
2022-09-12T18:11:02.542Z,100.00
2022-09-12T18:13:43.060Z,100.00
2022-09-12T18:16:24.775Z,100.00
2022-09-12T18:19:21.731Z,100.00
2022-09-12T18:22:08.825Z,100.00
2022-09-12T18:24:55.943Z,100.00
2022-09-12T18:27:35.861Z,100.00
2022-09-12T18:30:22.071Z,100.00
2022-09-12T18:32:59.595Z,100.00
2022-09-12T18:35:47.253Z,100.00
2022-09-12T18:38:32.940Z,100.00
2022-09-12T18:41:14.942Z,100.00
2022-09-12T18:44:04.452Z,100.00
2022-09-12T18:46:55.717Z,100.00
2022-09-12T18:49:35.962Z,100.00
2022-09-12T18:52:30.684Z,100.00
2022-09-12T18:55:08.470Z,100.00
2022-09-12T18:57:45.641Z,100.00
2022-09-12T19:00:26.001Z,100.00
2022-09-12T19:03:10.559Z,100.00
2022-09-12T19:05:56.477Z,100.00
2022-09-12T19:08:48.014Z,100.00
2022-09-12T19:11:23.959Z,100.00
2022-09-12T19:14:00.508Z,100.00
2022-09-12T19:16:39.144Z,100.00
2022-09-12T19:19:24.973Z,100.00
2022-09-12T19:22:01.969Z,100.00
2022-09-12T19:24:56.706Z,100.00
2022-09-12T19:27:35.698Z,100.00
2022-09-12T19:30:32.894Z,100.00
2022-09-12T19:33:21.965Z,100.00
2022-09-12T19:36:04.723Z,100.00
2022-09-12T19:38:49.819Z,100.00
2022-09-12T19:41:35.642Z,100.00
2022-09-12T19:44:15.334Z,100.00
2022-09-12T19:46:57.589Z,100.00
2022-09-12T19:49:38.088Z,100.00
2022-09-12T19:52:23.495Z,100.00
2022-09-12T19:55:11.204Z,100.00
2022-09-12T19:58:05.700Z,100.00
2022-09-12T20:00:46.261Z,100.00
2022-09-12T20:03:23.720Z,100.00
2022-09-12T20:06:02.852Z,100.00
2022-09-12T20:11:33.554Z,100.00
2022-09-12T20:14:18.609Z,100.00
2022-09-12T20:16:55.724Z,100.00
2022-09-12T20:19:36.982Z,100.00
2022-09-12T20:22:21.332Z,100.00
2022-09-12T20:25:00.187Z,100.00
2022-09-12T20:27:51.773Z,100.00
2022-09-12T20:31:09.148Z,100.00
2022-09-12T20:33:51.700Z,100.00
2022-09-12T20:36:41.100Z,100.00
2022-09-12T20:39:23.063Z,100.00
2022-09-12T20:42:03.773Z,100.00
2022-09-12T20:44:40.335Z,100.00
2022-09-12T20:47:19.580Z,100.00
2022-09-12T20:50:04.227Z,100.00
2022-09-12T20:52:42.949Z,100.00
2022-09-12T20:55:22.202Z,100.00
2022-09-12T20:58:08.268Z,100.00
2022-09-12T21:00:47.473Z,100.00
2022-09-12T21:03:34.656Z,100.00
2022-09-12T21:06:30.679Z,100.00
2022-09-12T21:09:16.088Z,100.00
2022-09-12T21:11:54.407Z,100.00
2022-09-12T21:14:30.703Z,100.00
2022-09-12T21:17:09.812Z,100.00
2022-09-12T21:19:47.061Z,100.00
2022-09-12T21:22:41.093Z,100.00
2022-09-12T21:25:20.944Z,100.00
2022-09-12T21:27:58.479Z,100.00
2022-09-12T21:30:36.821Z,100.00
2022-09-12T21:33:15.968Z,100.00
2022-09-12T21:35:52.190Z,100.00
2022-09-12T21:41:37.985Z,100.00
2022-09-12T21:44:13.878Z,100.00
2022-09-12T21:46:54.731Z,100.00
2022-09-12T21:49:35.064Z,100.00
2022-09-12T21:52:14.572Z,100.00
2022-09-12T21:55:02.288Z,100.00
2022-09-12T21:57:51.301Z,100.00
2022-09-12T22:00:30.361Z,100.00
2022-09-12T22:03:11.099Z,100.00
2022-09-12T22:05:56.516Z,100.00
2022-09-12T22:08:33.459Z,100.00
2022-09-12T22:11:53.835Z,100.00
2022-09-12T22:14:33.124Z,100.00
2022-09-12T22:17:10.923Z,100.00
2022-09-12T22:19:51.033Z,99.66
2022-09-12T22:22:55.748Z,99.50
2022-09-12T22:25:30.686Z,98.64
2022-09-12T22:28:32.234Z,97.57
2022-09-12T22:31:20.152Z,96.62
2022-09-12T22:34:09.102Z,96.09
2022-09-12T22:36:47.752Z,95.69
2022-09-12T22:39:39.405Z,95.12
2022-09-12T22:42:41.035Z,93.80
2022-09-12T22:45:21.287Z,93.65
2022-09-12T22:48:05.046Z,92.81
2022-09-12T22:51:01.238Z,92.12
2022-09-12T22:53:46.460Z,91.39
2022-09-12T22:56:30.234Z,90.82
2022-09-12T22:59:22.592Z,90.33
2022-09-12T23:02:12.585Z,89.60
2022-09-12T23:05:03.744Z,88.60
2022-09-12T23:07:55.996Z,88.11
2022-09-12T23:10:50.443Z,87.65
2022-09-12T23:13:50.448Z,87.14
2022-09-12T23:16:35.245Z,85.73
2022-09-12T23:19:28.201Z,85.33
2022-09-12T23:22:15.415Z,85.02
2022-09-12T23:24:50.189Z,84.74
2022-09-12T23:27:29.263Z,84.15
2022-09-12T23:30:08.053Z,83.23
2022-09-12T23:32:49.061Z,82.36
2022-09-12T23:35:40.315Z,81.55
2022-09-12T23:38:18.772Z,80.40
2022-09-12T23:41:01.508Z,78.01
2022-09-12T23:43:39.534Z,78.31
2022-09-12T23:46:29.582Z,79.08
2022-09-12T23:49:07.714Z,78.37
2022-09-12T23:51:45.747Z,77.30
2022-09-12T23:54:32.163Z,77.04
2022-09-12T23:57:10.240Z,76.33
2022-09-12T23:59:51.150Z,76.80
